createdAt,value
2018-07-08T11:01:26.811Z,54.82
2018-07-08T11:20:19.454Z,56.07
2018-07-08T11:21:26.561Z,55.97
2018-07-08T11:22:26.535Z,56.17
2018-07-08T11:23:26.525Z,56.74
2018-07-08T11:24:01.483Z,56.04
2018-07-08T11:25:01.455Z,54.71
2018-07-08T11:26:24.737Z,54.82
2018-07-08T11:27:24.702Z,54.82
2018-07-08T11:28:24.679Z,55.32
2018-07-08T11:29:24.663Z,54.82
2018-07-08T11:30:24.640Z,55.41
2018-07-08T11:31:24.618Z,55.71
2018-07-08T11:32:24.598Z,54.82
2018-07-08T11:33:24.588Z,55.74
2018-07-08T11:34:24.587Z,56.74
2018-07-08T11:35:24.524Z,56.74
2018-07-08T11:36:24.497Z,56.87
2018-07-08T11:37:24.472Z,56.87
2018-07-08T11:38:24.449Z,55.94
2018-07-08T11:39:24.433Z,56.54
2018-07-08T11:40:24.411Z,56.04
2018-07-08T11:41:24.390Z,56.74
2018-07-08T11:42:24.363Z,0.00
2018-07-08T11:43:24.337Z,0.00
2018-07-08T11:44:24.303Z,0.00
2018-07-08T11:45:24.275Z,0.00
2018-07-08T11:46:24.267Z,0.00
2018-07-08T11:47:24.208Z,0.00
2018-07-08T11:48:24.173Z,0.00
2018-07-08T11:49:24.136Z,0.00
2018-07-08T11:50:24.098Z,0.00
2018-07-08T11:51:24.071Z,0.00
2018-07-08T11:52:24.030Z,0.00
2018-07-08T11:53:23.982Z,0.00
2018-07-08T11:54:23.946Z,0.00
2018-07-08T11:55:23.965Z,0.00
2018-07-08T11:56:23.871Z,0.00
2018-07-08T11:57:23.832Z,0.00
2018-07-08T11:58:23.796Z,0.00
2018-07-08T12:01:38.307Z,53.51
2018-07-08T12:02:38.081Z,53.31
2018-07-08T12:03:38.073Z,53.74
2018-07-08T12:04:29.518Z,54.06
2018-07-08T12:04:59.524Z,54.06
2018-07-08T12:05:29.493Z,54.16
2018-07-08T12:05:59.479Z,54.69
2018-07-08T12:06:29.503Z,54.49
2018-07-08T12:06:59.449Z,55.19
2018-07-08T12:07:29.431Z,55.39
2018-07-08T12:07:59.673Z,55.39
2018-07-08T12:08:29.411Z,55.39
2018-07-08T12:08:59.428Z,55.32
2018-07-08T12:09:29.374Z,55.41
2018-07-08T12:09:59.359Z,55.51
2018-07-08T12:10:29.346Z,55.62
2018-07-08T12:10:59.332Z,55.51
2018-07-08T12:11:29.316Z,55.71
2018-07-08T12:11:59.301Z,55.81
2018-07-08T12:12:29.289Z,55.92
2018-07-08T12:12:59.273Z,55.92
2018-07-08T12:13:29.259Z,56.01
2018-07-08T12:13:59.244Z,56.01
2018-07-08T12:14:29.289Z,56.01
2018-07-08T12:14:59.220Z,56.01
2018-07-08T12:15:29.206Z,55.92
2018-07-08T12:15:59.194Z,56.31
2018-07-08T12:16:29.183Z,56.69
2018-07-08T12:16:59.167Z,99.99
2018-07-08T12:17:29.154Z,99.99
2018-07-08T12:20:19.582Z,54.51
2018-07-08T12:21:33.161Z,53.79
2018-07-08T12:24:02.204Z,52.96
2018-07-08T12:25:02.200Z,53.19
2018-07-08T12:26:02.187Z,53.74
2018-07-08T12:27:02.169Z,55.06
2018-07-08T12:28:02.154Z,55.26
2018-07-08T12:29:02.133Z,55.49
2018-07-08T12:30:02.114Z,55.59
2018-07-08T12:31:02.093Z,55.66
2018-07-08T12:32:02.070Z,55.46
2018-07-08T12:33:02.045Z,55.26
2018-07-08T12:34:02.019Z,55.26
2018-07-08T12:35:01.993Z,54.96
2018-07-08T12:36:01.968Z,55.16
2018-07-08T12:37:01.933Z,54.84
2018-07-08T12:38:01.898Z,54.84
2018-07-08T12:39:01.871Z,54.84
2018-07-08T12:40:01.836Z,54.93
2018-07-08T12:41:01.801Z,55.36
2018-07-08T12:42:01.774Z,55.39
2018-07-08T12:43:01.743Z,55.69
2018-07-08T12:44:01.724Z,56.21
2018-07-08T12:45:01.687Z,55.69
2018-07-08T12:46:01.655Z,55.79
2018-07-08T12:47:01.653Z,55.88
2018-07-08T12:48:01.603Z,55.88
2018-07-08T12:49:01.573Z,55.88
2018-07-08T12:50:01.545Z,56.09
2018-07-08T12:51:01.512Z,55.99
2018-07-08T12:52:01.483Z,55.88
2018-07-08T12:53:01.505Z,57.96
2018-07-08T12:54:01.429Z,55.43
2018-07-08T12:55:01.405Z,54.71
2018-07-08T12:56:01.375Z,54.21
2018-07-08T12:57:01.346Z,53.88
2018-07-08T12:58:01.317Z,54.98
2018-07-08T12:59:01.314Z,53.49
2018-07-08T13:00:01.263Z,53.36
2018-07-08T13:01:01.230Z,53.26
2018-07-08T13:02:01.208Z,53.36
2018-07-08T13:03:01.175Z,53.06
2018-07-08T13:04:01.146Z,53.06
2018-07-08T13:05:01.117Z,52.84
2018-07-08T13:06:01.088Z,52.74
2018-07-08T13:07:01.058Z,52.74
2018-07-08T13:08:01.031Z,52.54
2018-07-08T13:09:01.002Z,52.94
2018-07-08T13:10:00.970Z,52.94
2018-07-08T13:11:00.947Z,52.54
2018-07-08T13:12:00.917Z,52.54
2018-07-08T13:13:00.890Z,52.54
2018-07-08T13:14:00.865Z,52.74
2018-07-08T13:15:00.841Z,52.74
2018-07-08T13:16:00.815Z,53.14
2018-07-08T13:17:00.787Z,52.74
2018-07-08T13:18:00.768Z,52.94
2018-07-08T13:19:00.734Z,53.14
2018-07-08T17:29:32.221Z,53.56
2018-07-08T17:30:32.135Z,53.66
2018-07-08T17:31:32.068Z,53.76
2018-07-08T17:32:31.992Z,53.36
2018-07-08T17:33:32.029Z,53.46
2018-07-08T17:34:31.803Z,53.56
2018-07-08T17:35:31.699Z,53.36
2018-07-08T17:36:31.595Z,53.16
2018-07-08T17:37:31.484Z,53.36
2018-07-08T17:38:31.372Z,52.86
2018-07-08T17:39:31.261Z,52.74
2018-07-08T17:40:31.147Z,52.84
2018-07-08T17:41:31.029Z,52.54
2018-07-08T17:42:30.912Z,52.24
2018-07-08T17:43:30.791Z,52.44
2018-07-08T17:44:30.667Z,52.34
2018-07-08T17:45:30.547Z,52.44
2018-07-08T17:46:30.500Z,52.54
2018-07-08T17:47:30.285Z,52.54
2018-07-08T17:48:30.159Z,52.54
2018-07-08T17:49:30.030Z,52.34
2018-07-08T17:50:29.895Z,52.24
